createdAt,value
2017-12-12T00:00:04.594Z,983.41
2017-12-12T00:01:13.567Z,983.44
2017-12-12T00:02:22.388Z,983.43
2017-12-12T00:03:31.497Z,983.45
2017-12-12T00:04:40.325Z,983.46
2017-12-12T00:05:49.147Z,983.46
2017-12-12T00:06:58.122Z,983.46
2017-12-12T00:08:06.942Z,983.47
2017-12-12T00:09:15.766Z,983.48
2017-12-12T00:10:24.590Z,983.5
2017-12-12T00:11:33.412Z,983.51
2017-12-12T00:12:42.287Z,983.53
2017-12-12T00:13:51.111Z,983.52
2017-12-12T00:14:59.934Z,983.62
2017-12-12T00:16:08.756Z,983.57
2017-12-12T00:17:17.579Z,983.61
2017-12-12T00:18:26.453Z,983.66
2017-12-12T00:19:35.277Z,983.65
2017-12-12T00:20:44.100Z,983.65
2017-12-12T00:21:52.923Z,983.71
2017-12-12T00:23:02.093Z,983.63
2017-12-12T00:24:11.219Z,983.64
2017-12-12T00:25:20.326Z,983.64
2017-12-12T00:26:29.424Z,983.63
2017-12-12T00:27:38.256Z,983.65
2017-12-12T00:28:47.073Z,983.67
2017-12-12T00:29:55.948Z,983.67
2017-12-12T00:31:04.769Z,983.66
2017-12-12T00:32:13.592Z,983.71
2017-12-12T00:33:22.417Z,983.77
2017-12-12T00:34:31.243Z,983.77
2017-12-12T00:35:40.371Z,983.78
2017-12-12T00:36:49.193Z,983.79
2017-12-12T00:37:58.020Z,983.8
2017-12-12T00:39:06.842Z,983.82
2017-12-12T00:40:15.664Z,983.75
2017-12-12T00:41:24.788Z,983.82
2017-12-12T00:42:33.614Z,983.75
2017-12-12T00:43:42.718Z,983.75
2017-12-12T00:44:51.815Z,983.78
2017-12-12T00:46:00.639Z,983.8
2017-12-12T00:47:09.839Z,983.85
2017-12-12T00:48:18.672Z,983.88
2017-12-12T00:49:27.497Z,983.85
2017-12-12T00:50:36.322Z,983.94
2017-12-12T00:51:45.148Z,984.01
2017-12-12T00:52:54.276Z,984.08
2017-12-12T00:54:03.094Z,984.08
2017-12-12T00:55:11.919Z,984.18
2017-12-12T00:56:20.740Z,984.18
2017-12-12T00:57:29.565Z,984.2
2017-12-12T00:58:38.438Z,984.24
2017-12-12T00:59:47.541Z,984.26
2017-12-12T01:00:56.638Z,984.27
2017-12-12T01:02:05.462Z,984.28
2017-12-12T01:03:14.562Z,984.3
2017-12-12T01:04:23.534Z,984.31
2017-12-12T01:05:32.739Z,984.39
2017-12-12T01:06:41.563Z,984.41
2017-12-12T01:07:50.386Z,984.4
2017-12-12T01:08:59.210Z,984.45
2017-12-12T01:10:08.085Z,984.5
2017-12-12T01:11:16.910Z,984.46
2017-12-12T01:12:25.733Z,984.51
2017-12-12T01:13:34.554Z,984.54
2017-12-12T01:14:43.379Z,984.58
2017-12-12T01:15:52.200Z,984.55
2017-12-12T01:17:01.301Z,984.58
2017-12-12T01:18:10.405Z,984.56
2017-12-12T01:19:19.226Z,984.52
2017-12-12T01:20:28.050Z,984.55
2017-12-12T01:21:37.023Z,984.61
2017-12-12T01:22:45.846Z,984.63
2017-12-12T01:23:54.672Z,984.67
2017-12-12T01:25:03.496Z,984.66
2017-12-12T01:26:12.320Z,984.68
2017-12-12T01:27:21.246Z,984.73
2017-12-12T01:28:30.066Z,984.77
2017-12-12T01:29:38.892Z,984.84
2017-12-12T01:30:47.716Z,984.87
2017-12-12T01:31:56.814Z,984.82
2017-12-12T01:33:05.946Z,984.9
2017-12-12T01:34:14.768Z,984.91
2017-12-12T01:35:23.590Z,984.91
2017-12-12T01:36:32.412Z,984.96
2017-12-12T01:37:41.235Z,984.99
2017-12-12T01:38:50.108Z,985.01
2017-12-12T01:39:58.932Z,985.03
2017-12-12T01:41:08.031Z,985.06
2017-12-12T01:42:16.853Z,985.12
2017-12-12T01:43:25.674Z,985.15
2017-12-12T01:44:34.798Z,985.2
2017-12-12T01:45:43.620Z,985.16
2017-12-12T01:46:52.444Z,985.21
2017-12-12T01:48:01.267Z,985.31
2017-12-12T01:49:10.091Z,985.33
2017-12-12T01:50:19.215Z,985.33
2017-12-12T01:51:28.306Z,985.36
2017-12-12T01:52:37.129Z,985.41
2017-12-12T01:53:45.952Z,985.44
2017-12-12T01:54:55.046Z,985.5
2017-12-12T01:56:04.019Z,985.47
2017-12-12T01:57:12.844Z,985.49
2017-12-12T01:58:21.941Z,985.52
2017-12-12T01:59:30.764Z,985.52
2017-12-12T02:00:39.585Z,985.58
2017-12-12T02:01:48.658Z,985.63
2017-12-12T02:02:57.479Z,985.66
2017-12-12T02:04:06.298Z,985.67
2017-12-12T02:05:15.118Z,985.68
2017-12-12T02:06:23.939Z,985.73
2017-12-12T02:07:32.760Z,985.79
2017-12-12T02:08:41.584Z,985.82
2017-12-12T02:09:50.407Z,985.86
2017-12-12T02:10:59.229Z,985.9
2017-12-12T02:12:08.052Z,985.94
2017-12-12T02:13:17.171Z,985.94
2017-12-12T02:14:25.992Z,985.96
2017-12-12T02:15:34.814Z,986.01
2017-12-12T02:16:43.636Z,986.02
2017-12-12T02:17:52.459Z,986.05
2017-12-12T02:19:01.386Z,986.07
2017-12-12T02:20:10.209Z,986.04
2017-12-12T02:21:19.031Z,986.15
2017-12-12T02:22:28.126Z,986.14
2017-12-12T02:23:37.223Z,986.2
2017-12-12T02:24:46.046Z,986.22
2017-12-12T02:25:54.868Z,986.21
2017-12-12T02:27:03.688Z,986.19
2017-12-12T02:28:12.513Z,986.19
2017-12-12T02:29:21.338Z,986.26
2017-12-12T02:30:30.857Z,986.29
2017-12-12T02:31:39.680Z,986.36
2017-12-12T02:32:48.504Z,986.32
2017-12-12T02:33:57.325Z,986.33
2017-12-12T02:35:06.421Z,986.37
2017-12-12T02:36:15.292Z,986.42
2017-12-12T02:37:24.114Z,986.49
2017-12-12T02:38:33.210Z,986.49
2017-12-12T02:39:42.029Z,986.56
2017-12-12T02:40:50.853Z,986.53
2017-12-12T02:41:59.826Z,986.52
2017-12-12T02:43:08.931Z,986.59
2017-12-12T02:44:17.757Z,986.64
2017-12-12T02:45:26.577Z,986.64
2017-12-12T02:46:35.399Z,986.67
2017-12-12T02:47:44.374Z,986.67
2017-12-12T02:48:53.473Z,986.65
2017-12-12T02:50:02.366Z,986.6
2017-12-12T02:51:11.117Z,986.67
2017-12-12T02:52:19.940Z,986.66
2017-12-12T02:53:28.814Z,986.7
2017-12-12T02:54:37.637Z,986.7
2017-12-12T02:55:46.464Z,986.7
2017-12-12T02:56:55.561Z,986.78
2017-12-12T02:58:04.386Z,986.78
2017-12-12T02:59:13.580Z,986.84
2017-12-12T03:00:22.402Z,986.83
2017-12-12T03:01:31.224Z,986.88
2017-12-12T03:02:40.047Z,986.96
2017-12-12T03:03:49.143Z,986.92
2017-12-12T03:04:57.965Z,986.92
2017-12-12T03:06:06.786Z,986.95
2017-12-12T03:07:15.614Z,986.99
2017-12-12T03:08:24.429Z,987.02
2017-12-12T03:09:33.524Z,987.03
2017-12-12T03:10:42.497Z,987.07
2017-12-12T03:11:51.601Z,987.08
2017-12-12T03:13:00.422Z,987.11
2017-12-12T03:14:09.243Z,987.11
2017-12-12T03:15:18.336Z,987.11
2017-12-12T03:16:27.209Z,987.15
2017-12-12T03:17:36.030Z,987.19
2017-12-12T03:18:45.129Z,987.23
2017-12-12T03:19:53.949Z,987.25
2017-12-12T03:21:03.043Z,987.24
2017-12-12T03:22:12.014Z,987.28
2017-12-12T03:23:21.116Z,987.34
2017-12-12T03:24:29.940Z,987.38
2017-12-12T03:25:38.759Z,987.43
2017-12-12T03:26:47.583Z,987.44
2017-12-12T03:27:56.605Z,987.48
2017-12-12T03:29:05.425Z,987.53
2017-12-12T03:30:14.249Z,987.52
2017-12-12T03:31:23.072Z,987.54
2017-12-12T03:32:31.893Z,987.6
2017-12-12T03:33:40.714Z,987.64
2017-12-12T03:34:49.588Z,987.63
2017-12-12T03:35:58.634Z,987.7
2017-12-12T03:37:07.458Z,987.73
2017-12-12T03:38:16.280Z,987.75
2017-12-12T03:39:25.156Z,987.78
2017-12-12T03:40:33.976Z,987.86
2017-12-12T03:41:42.798Z,987.87
2017-12-12T03:42:51.620Z,987.9
2017-12-12T03:44:00.444Z,987.95
2017-12-12T03:45:09.565Z,987.97
2017-12-12T03:46:18.386Z,988.02
2017-12-12T03:47:27.209Z,988.04
2017-12-12T03:48:36.030Z,988.04
2017-12-12T03:49:44.851Z,988.11
2017-12-12T03:50:53.724Z,988.16
2017-12-12T03:52:02.547Z,988.16
2017-12-12T03:53:11.366Z,988.29
2017-12-12T03:54:20.465Z,988.33
2017-12-12T03:55:29.285Z,988.36
2017-12-12T03:56:38.630Z,988.41
2017-12-12T03:57:47.451Z,988.38
2017-12-12T03:58:56.274Z,988.45
2017-12-12T04:00:05.094Z,988.43
2017-12-12T04:01:13.918Z,988.53
2017-12-12T04:02:22.788Z,988.57
2017-12-12T04:03:31.609Z,988.52
2017-12-12T04:04:40.429Z,988.53
2017-12-12T04:05:49.250Z,988.61
2017-12-12T04:06:58.071Z,988.65
2017-12-12T04:08:06.992Z,988.67
2017-12-12T04:09:15.813Z,988.73
2017-12-12T04:10:24.634Z,988.77
2017-12-12T04:11:33.454Z,988.77
2017-12-12T04:12:42.274Z,988.83
2017-12-12T04:13:51.247Z,988.94
2017-12-12T04:15:00.066Z,989.01
2017-12-12T04:16:08.888Z,989.04
2017-12-12T04:17:17.708Z,989.07
2017-12-12T04:18:26.532Z,989.14
2017-12-12T04:19:35.607Z,989.28
2017-12-12T04:20:44.428Z,989.16
2017-12-12T04:21:53.250Z,989.28
2017-12-12T04:23:02.074Z,989.28
2017-12-12T04:24:10.894Z,989.31
2017-12-12T04:25:20.069Z,989.3
2017-12-12T04:26:28.865Z,989.35
2017-12-12T04:27:37.688Z,989.32
2017-12-12T04:28:46.515Z,989.4
2017-12-12T04:29:56.163Z,989.59
2017-12-12T04:31:05.085Z,989.53
2017-12-12T04:32:13.906Z,989.56
2017-12-12T04:33:22.727Z,989.57
2017-12-12T04:34:31.548Z,989.62
2017-12-12T04:35:40.371Z,989.64
2017-12-12T04:36:49.774Z,989.75
2017-12-12T04:37:58.596Z,989.8
2017-12-12T04:39:07.419Z,989.85
2017-12-12T04:40:16.239Z,989.9
2017-12-12T04:41:25.340Z,989.92
2017-12-12T04:42:34.212Z,989.94
2017-12-12T04:43:43.036Z,989.94
2017-12-12T04:44:51.854Z,990.01
2017-12-12T04:46:00.676Z,990.03
2017-12-12T04:47:09.773Z,990.1
2017-12-12T04:48:18.745Z,990.13
2017-12-12T04:49:27.566Z,990.23
2017-12-12T04:50:36.387Z,990.25
2017-12-12T04:51:45.208Z,990.29
2017-12-12T04:52:54.030Z,990.33
2017-12-12T04:54:03.002Z,990.32
2017-12-12T04:55:11.824Z,990.36
2017-12-12T04:56:20.646Z,990.41
2017-12-12T04:57:29.468Z,990.53
2017-12-12T04:58:38.288Z,990.46
2017-12-12T04:59:47.685Z,990.5
2017-12-12T05:00:56.511Z,990.5
2017-12-12T05:02:05.335Z,990.5
2017-12-12T05:03:14.161Z,990.56
2017-12-12T05:04:22.983Z,990.57
2017-12-12T05:05:31.906Z,990.63
2017-12-12T05:06:40.727Z,990.65
2017-12-12T05:07:49.548Z,990.7
2017-12-12T05:08:58.370Z,990.71
2017-12-12T05:10:07.193Z,990.73
2017-12-12T05:11:16.166Z,990.82
2017-12-12T05:12:24.989Z,990.81
2017-12-12T05:13:33.812Z,990.86
2017-12-12T05:14:42.633Z,990.89
2017-12-12T05:15:51.728Z,990.97
2017-12-12T05:17:00.704Z,991
2017-12-12T05:18:09.803Z,991.03
2017-12-12T05:19:18.623Z,991.07
2017-12-12T05:20:27.446Z,991.09
2017-12-12T05:21:36.273Z,991.13
2017-12-12T05:22:45.246Z,991.22
2017-12-12T05:23:54.066Z,991.23
2017-12-12T05:25:03.164Z,991.19
2017-12-12T05:26:11.990Z,991.33
2017-12-12T05:27:20.807Z,991.34
2017-12-12T05:28:29.731Z,991.42
2017-12-12T05:29:38.550Z,991.47
2017-12-12T05:30:47.374Z,991.5
2017-12-12T05:31:56.743Z,991.53
2017-12-12T05:33:05.563Z,991.61
2017-12-12T05:34:14.486Z,991.63
2017-12-12T05:35:23.307Z,991.72
2017-12-12T05:36:32.130Z,991.72
2017-12-12T05:37:41.223Z,991.74
2017-12-12T05:38:50.051Z,991.79
2017-12-12T05:39:58.873Z,991.84
2017-12-12T05:41:07.695Z,991.83
2017-12-12T05:42:16.518Z,991.91
2017-12-12T05:43:25.350Z,991.94
2017-12-12T05:44:34.469Z,991.93
2017-12-12T05:45:43.294Z,991.97
2017-12-12T05:46:52.111Z,992.1
2017-12-12T05:48:01.207Z,992.14
2017-12-12T05:49:10.029Z,992.17
2017-12-12T05:50:18.848Z,992.25
2017-12-12T05:51:27.670Z,992.31
2017-12-12T05:52:36.494Z,992.37
2017-12-12T05:53:45.318Z,992.39
2017-12-12T05:54:54.137Z,992.43
2017-12-12T05:56:02.958Z,992.47
2017-12-12T05:57:11.780Z,992.5
2017-12-12T05:58:20.604Z,992.51
2017-12-12T05:59:29.430Z,992.61
2017-12-12T06:00:38.249Z,992.66
2017-12-12T06:01:47.115Z,992.68
2017-12-12T06:02:55.893Z,992.68
2017-12-12T06:04:04.715Z,992.74
2017-12-12T06:05:13.643Z,992.82
2017-12-12T06:06:22.466Z,992.87
2017-12-12T06:07:31.292Z,992.91
2017-12-12T06:08:40.114Z,993.01
2017-12-12T06:09:48.936Z,993.06
2017-12-12T06:10:58.162Z,993.07
2017-12-12T06:12:06.987Z,993.06
2017-12-12T06:13:15.809Z,993.15
2017-12-12T06:14:24.633Z,993.18
2017-12-12T06:15:33.453Z,993.25
2017-12-12T06:16:42.325Z,993.3
2017-12-12T06:17:51.430Z,993.39
2017-12-12T06:19:00.263Z,993.34
2017-12-12T06:20:09.360Z,993.39
2017-12-12T06:21:18.184Z,993.45
2017-12-12T06:22:27.156Z,993.47
2017-12-12T06:23:35.980Z,993.52
2017-12-12T06:24:44.805Z,993.65
2017-12-12T06:25:53.629Z,993.63
2017-12-12T06:27:02.460Z,993.68
2017-12-12T06:28:11.327Z,993.68
2017-12-12T06:29:20.435Z,993.74
2017-12-12T06:30:29.258Z,993.82
2017-12-12T06:31:38.383Z,993.77
2017-12-12T06:32:47.205Z,993.78
2017-12-12T06:33:56.430Z,993.83
2017-12-12T06:35:05.255Z,993.87
2017-12-12T06:36:14.083Z,993.87
2017-12-12T06:37:22.906Z,993.93
2017-12-12T06:38:31.730Z,993.96
2017-12-12T06:39:40.853Z,994.05
2017-12-12T06:40:49.678Z,994.04
2017-12-12T06:41:58.775Z,994.07
2017-12-12T06:43:07.601Z,994.12
2017-12-12T06:44:16.422Z,994.15
2017-12-12T06:45:25.448Z,994.22
2017-12-12T06:46:34.269Z,994.26
2017-12-12T06:47:43.092Z,994.26
2017-12-12T06:48:51.915Z,994.34
2017-12-12T06:50:00.737Z,994.32
2017-12-12T06:51:09.559Z,994.42
2017-12-12T06:52:18.383Z,994.49
2017-12-12T06:53:27.205Z,994.53
2017-12-12T06:54:36.030Z,994.54
2017-12-12T06:55:44.855Z,994.55
2017-12-12T06:56:54.104Z,994.61
2017-12-12T06:58:02.938Z,994.62
2017-12-12T06:59:11.763Z,994.64
2017-12-12T07:00:20.587Z,994.69
2017-12-12T07:01:29.682Z,994.67
2017-12-12T07:02:38.504Z,994.72
2017-12-12T07:03:47.327Z,994.76
2017-12-12T07:04:56.150Z,994.76
2017-12-12T07:06:05.255Z,994.78
2017-12-12T07:07:14.077Z,994.79
2017-12-12T07:08:22.902Z,994.8
2017-12-12T07:09:32.001Z,994.8
2017-12-12T07:10:40.824Z,994.86
2017-12-12T07:11:49.646Z,994.91
2017-12-12T07:12:58.468Z,994.99
2017-12-12T07:14:07.389Z,995.03
2017-12-12T07:15:16.213Z,995.1
2017-12-12T07:16:25.036Z,995.18
2017-12-12T07:17:33.859Z,995.16
2017-12-12T07:18:42.681Z,995.17
2017-12-12T07:19:51.554Z,995.2
2017-12-12T07:21:00.377Z,995.18
2017-12-12T07:22:09.200Z,995.27
2017-12-12T07:23:18.024Z,995.28
2017-12-12T07:24:26.846Z,995.31
2017-12-12T07:25:35.819Z,995.35
2017-12-12T07:26:44.642Z,995.39
2017-12-12T07:27:53.469Z,995.38
2017-12-12T07:29:02.291Z,995.44
2017-12-12T07:30:11.113Z,995.45
2017-12-12T07:31:20.037Z,995.45
2017-12-12T07:32:28.861Z,995.48
2017-12-12T07:33:37.735Z,995.51
2017-12-12T07:34:46.503Z,995.57
2017-12-12T07:35:55.329Z,995.63
2017-12-12T07:37:04.203Z,995.63
2017-12-12T07:38:13.024Z,995.65
2017-12-12T07:39:21.847Z,995.7
2017-12-12T07:40:30.670Z,995.66
2017-12-12T07:41:39.492Z,995.73
2017-12-12T07:42:48.466Z,995.76
2017-12-12T07:43:57.288Z,995.78
2017-12-12T07:45:06.112Z,995.82
2017-12-12T07:46:14.936Z,995.85
2017-12-12T07:47:24.312Z,995.84
2017-12-12T07:48:33.284Z,995.86
2017-12-12T07:49:42.106Z,995.91
2017-12-12T07:50:50.929Z,995.86
2017-12-12T07:51:59.753Z,995.89
2017-12-12T07:53:08.575Z,995.93
2017-12-12T07:54:17.547Z,995.97
2017-12-12T07:55:26.645Z,996.03
2017-12-12T07:56:35.467Z,996.01
2017-12-12T07:57:44.291Z,996.03
2017-12-12T07:58:53.116Z,996.12
2017-12-12T08:00:02.040Z,996.2
2017-12-12T08:01:11.138Z,996.19
2017-12-12T08:02:19.963Z,996.25
2017-12-12T08:03:28.790Z,996.18
2017-12-12T08:04:37.611Z,996.26
2017-12-12T08:05:46.589Z,996.28
2017-12-12T08:06:55.416Z,996.32
2017-12-12T08:08:04.240Z,996.26
2017-12-12T08:09:13.339Z,996.29
2017-12-12T08:10:22.162Z,996.38
2017-12-12T08:11:31.313Z,996.39
2017-12-12T08:12:40.414Z,996.44
2017-12-12T08:13:49.236Z,996.48
2017-12-12T08:14:58.067Z,996.45
2017-12-12T08:16:06.892Z,996.52
2017-12-12T08:17:16.016Z,996.57
2017-12-12T08:18:24.837Z,996.55
2017-12-12T08:19:33.659Z,996.64
2017-12-12T08:20:42.483Z,996.69
2017-12-12T08:21:51.308Z,996.75
2017-12-12T08:23:00.132Z,996.82
2017-12-12T08:24:08.954Z,996.82
2017-12-12T08:25:17.775Z,996.8
2017-12-12T08:26:26.598Z,996.83
2017-12-12T08:27:35.422Z,996.87
2017-12-12T08:28:44.645Z,996.91
2017-12-12T08:29:53.466Z,996.87
2017-12-12T08:31:02.291Z,996.91
2017-12-12T08:32:11.114Z,996.86
2017-12-12T08:33:20.216Z,996.97
2017-12-12T08:34:29.192Z,997.07
2017-12-12T08:35:38.010Z,997.18
2017-12-12T08:36:46.834Z,997.26
2017-12-12T08:37:55.659Z,997.22
2017-12-12T08:39:04.483Z,997.28
2017-12-12T08:40:13.317Z,997.35
2017-12-12T08:41:22.413Z,997.4
2017-12-12T08:42:31.235Z,997.37
2017-12-12T08:43:40.059Z,997.47
2017-12-12T08:44:48.882Z,997.57
2017-12-12T08:45:57.807Z,997.51
2017-12-12T08:47:06.629Z,997.48
2017-12-12T08:48:15.455Z,997.54
2017-12-12T08:49:24.276Z,997.6
2017-12-12T08:50:33.098Z,997.58
2017-12-12T08:51:42.074Z,997.67
2017-12-12T08:52:50.944Z,997.69
2017-12-12T08:53:59.770Z,997.69
2017-12-12T08:55:08.592Z,997.7
2017-12-12T08:56:17.415Z,997.72
2017-12-12T08:57:26.339Z,997.71
2017-12-12T08:58:35.158Z,997.72
2017-12-12T08:59:43.981Z,997.74
2017-12-12T09:00:52.805Z,997.8
2017-12-12T09:02:01.629Z,997.83
2017-12-12T09:03:10.551Z,997.92
2017-12-12T09:04:19.665Z,997.92
2017-12-12T09:05:28.483Z,997.94
2017-12-12T09:06:37.305Z,997.96
2017-12-12T09:07:46.128Z,997.99
2017-12-12T09:08:54.951Z,998.05
2017-12-12T09:10:03.773Z,998.02
2017-12-12T09:11:12.878Z,998.08
2017-12-12T09:12:21.979Z,998.07
2017-12-12T09:13:30.804Z,998.13
2017-12-12T09:14:39.999Z,998.15
2017-12-12T09:15:48.822Z,998.13
2017-12-12T09:16:57.645Z,998.19
2017-12-12T09:18:06.467Z,998.24
2017-12-12T09:19:15.291Z,998.3
2017-12-12T09:20:24.268Z,998.28
2017-12-12T09:21:33.366Z,998.33
2017-12-12T09:22:42.187Z,998.3
2017-12-12T09:23:51.011Z,998.42
2017-12-12T09:24:59.833Z,998.47
2017-12-12T09:26:08.657Z,998.52
2017-12-12T09:27:17.485Z,998.51
2017-12-12T09:28:26.304Z,998.57
2017-12-12T09:29:35.126Z,998.57
2017-12-12T09:30:43.948Z,998.65
2017-12-12T09:31:52.820Z,998.71
2017-12-12T09:33:01.644Z,998.8
2017-12-12T09:34:10.465Z,998.87
2017-12-12T09:35:19.288Z,998.9
2017-12-12T09:36:28.109Z,998.93
2017-12-12T09:37:37.082Z,998.9
2017-12-12T09:38:45.906Z,998.92
2017-12-12T09:39:54.730Z,998.9
2017-12-12T09:41:03.555Z,998.94
2017-12-12T09:42:12.377Z,998.96
2017-12-12T09:43:21.354Z,998.94
2017-12-12T09:44:30.178Z,999.01
2017-12-12T09:45:39.002Z,999.1
2017-12-12T09:46:47.830Z,999.14
2017-12-12T09:47:56.926Z,999.15
2017-12-12T09:49:05.804Z,999.16
2017-12-12T09:50:14.625Z,999.18
2017-12-12T09:51:23.453Z,999.25
2017-12-12T09:52:32.279Z,999.27
2017-12-12T09:53:41.100Z,999.29
2017-12-12T09:54:50.074Z,999.31
2017-12-12T09:55:58.898Z,999.37
2017-12-12T09:57:07.719Z,999.47
2017-12-12T09:58:16.546Z,999.49
2017-12-12T09:59:25.366Z,999.56
2017-12-12T10:00:34.339Z,999.56
2017-12-12T10:01:43.162Z,999.52
2017-12-12T10:02:51.988Z,999.62
2017-12-12T10:04:00.811Z,999.58
2017-12-12T10:05:09.634Z,999.62
2017-12-12T10:06:18.760Z,999.62
2017-12-12T10:07:27.859Z,999.66
2017-12-12T10:08:36.684Z,999.73
2017-12-12T10:09:45.792Z,999.75
2017-12-12T10:10:54.619Z,999.77
2017-12-12T10:12:03.443Z,999.84
2017-12-12T10:13:12.267Z,999.8
2017-12-12T10:14:21.095Z,999.83
2017-12-12T10:15:29.913Z,999.89
2017-12-12T10:16:38.737Z,999.89
2017-12-12T10:17:47.658Z,999.89
2017-12-12T10:18:56.480Z,999.93
2017-12-12T10:20:05.302Z,1000
2017-12-12T10:21:14.126Z,1000.01
2017-12-12T10:22:23.237Z,1000.01
2017-12-12T10:23:32.215Z,1000.04
2017-12-12T10:24:41.037Z,1000.05
2017-12-12T10:25:49.862Z,1000.11
2017-12-12T10:26:58.687Z,1000.15
2017-12-12T10:28:07.512Z,1000.12
2017-12-12T10:29:16.336Z,1000.21
2017-12-12T10:30:25.160Z,1000.24
2017-12-12T10:31:34.258Z,1000.27
2017-12-12T10:32:43.083Z,1000.28
2017-12-12T10:33:51.909Z,1000.31
2017-12-12T10:35:00.882Z,1000.31
2017-12-12T10:36:09.707Z,1000.35
2017-12-12T10:37:18.528Z,1000.38
2017-12-12T10:38:27.352Z,1000.41
2017-12-12T10:39:36.175Z,1000.38
2017-12-12T10:40:45.102Z,1000.42
2017-12-12T10:41:53.928Z,1000.48
2017-12-12T10:43:02.753Z,1000.42
2017-12-12T10:44:11.577Z,1000.52
2017-12-12T10:45:20.404Z,1000.58
2017-12-12T10:46:29.474Z,1000.53
2017-12-12T10:47:38.298Z,1000.61
2017-12-12T10:48:47.122Z,1000.6
2017-12-12T10:49:55.948Z,1000.61
2017-12-12T10:51:04.770Z,1000.64
2017-12-12T10:52:13.894Z,1000.61
2017-12-12T10:53:22.720Z,1000.65
2017-12-12T10:54:31.541Z,1000.66
2017-12-12T10:55:40.364Z,1000.75
2017-12-12T10:56:49.188Z,1000.74
2017-12-12T10:57:58.325Z,1000.75
2017-12-12T10:59:07.144Z,1000.82
2017-12-12T11:00:15.973Z,1000.91
2017-12-12T11:01:25.083Z,1000.93
2017-12-12T11:02:34.180Z,1001.01
2017-12-12T11:03:43.104Z,1000.97
2017-12-12T11:04:51.931Z,1000.99
2017-12-12T11:06:00.759Z,1001.01
2017-12-12T11:07:09.855Z,1001.05
2017-12-12T11:08:18.679Z,1001.11
2017-12-12T11:09:27.906Z,1001.1
2017-12-12T11:10:36.732Z,1001.16
2017-12-12T11:11:45.827Z,1001.18
2017-12-12T11:12:54.655Z,1001.22
2017-12-12T11:14:03.477Z,1001.32
2017-12-12T11:15:12.403Z,1001.37
2017-12-12T11:16:21.226Z,1001.37
2017-12-12T11:17:30.052Z,1001.36
2017-12-12T11:18:38.875Z,1001.44
2017-12-12T11:19:47.699Z,1001.43
2017-12-12T11:20:56.521Z,1001.47
2017-12-12T11:22:05.343Z,1001.54
2017-12-12T11:23:14.169Z,1001.52
2017-12-12T11:24:22.994Z,1001.55
2017-12-12T11:25:32.116Z,1001.59
2017-12-12T11:26:40.942Z,1001.59
2017-12-12T11:27:49.766Z,1001.61
2017-12-12T11:28:58.589Z,1001.65
2017-12-12T11:30:07.410Z,1001.66
2017-12-12T11:31:16.385Z,1001.7
2017-12-12T11:32:25.208Z,1001.81
2017-12-12T11:33:34.032Z,1001.81
2017-12-12T11:34:42.856Z,1001.86
2017-12-12T11:35:51.691Z,1001.9
2017-12-12T11:37:00.931Z,1001.91
2017-12-12T11:38:09.755Z,1001.98
2017-12-12T11:39:18.580Z,1002.03
2017-12-12T11:40:27.406Z,1002
2017-12-12T11:41:36.226Z,1002.07
2017-12-12T11:42:45.050Z,1002.14
2017-12-12T11:43:53.872Z,1002.26
2017-12-12T11:45:02.696Z,1002.25
2017-12-12T11:46:11.519Z,1002.23
2017-12-12T11:47:20.346Z,1002.27
2017-12-12T11:48:29.274Z,1002.36
2017-12-12T11:49:38.111Z,1002.33
2017-12-12T11:50:46.934Z,1002.37
2017-12-12T11:51:55.760Z,1002.36
2017-12-12T11:53:04.583Z,1002.41
2017-12-12T11:54:13.411Z,1002.42
2017-12-12T11:55:22.840Z,1002.48
2017-12-12T11:56:31.665Z,1002.47
2017-12-12T11:57:40.525Z,1002.53
2017-12-12T11:58:49.353Z,1002.54
2017-12-12T11:59:58.178Z,1002.6
2017-12-12T12:01:07.061Z,1002.6
2017-12-12T12:02:16.224Z,1002.59
2017-12-12T12:03:25.072Z,1002.56
2017-12-12T12:04:35.389Z,1002.61
2017-12-12T12:05:44.991Z,1002.6
2017-12-12T12:06:53.839Z,1002.6
2017-12-12T12:08:04.461Z,1002.61
2017-12-12T12:09:16.391Z,1002.66
2017-12-12T12:10:25.451Z,1002.72
2017-12-12T12:11:34.607Z,1002.78
2017-12-12T12:12:43.892Z,1002.81
2017-12-12T12:13:52.836Z,1002.9
2017-12-12T12:15:02.063Z,1002.9
2017-12-12T12:16:11.440Z,1002.96
2017-12-12T12:18:59.443Z,1003.11
2017-12-12T12:20:09.812Z,1003.11
2017-12-12T12:21:18.861Z,1003.17
2017-12-12T12:24:07.747Z,1003.21
2017-12-12T12:25:16.863Z,1003.22
2017-12-12T12:26:25.723Z,1003.27
2017-12-12T12:27:34.907Z,1003.27
2017-12-12T12:28:43.847Z,1003.31
2017-12-12T12:29:52.691Z,1003.29
2017-12-12T12:31:01.730Z,1003.36
2017-12-12T12:32:10.950Z,1003.33
2017-12-12T12:33:19.876Z,1003.39
2017-12-12T12:34:28.759Z,1003.36
2017-12-12T12:35:37.594Z,1003.43
2017-12-12T12:36:46.415Z,1003.47
2017-12-12T12:37:55.239Z,1003.42
2017-12-12T12:39:04.213Z,1003.5
2017-12-12T12:40:13.047Z,1003.46
2017-12-12T12:41:21.870Z,1003.5
2017-12-12T12:42:30.693Z,1003.52
2017-12-12T12:43:39.518Z,1003.52
2017-12-12T12:44:48.750Z,1003.57
2017-12-12T12:45:57.572Z,1003.57
2017-12-12T12:47:06.398Z,1003.55
2017-12-12T12:48:15.272Z,1003.62
2017-12-12T12:49:24.095Z,1003.63
2017-12-12T12:50:33.072Z,1003.68
2017-12-12T12:51:41.895Z,1003.71
2017-12-12T12:52:50.746Z,1003.72
2017-12-12T12:53:59.571Z,1003.74
2017-12-12T12:55:08.425Z,1003.76
2017-12-12T12:56:17.398Z,1003.74
2017-12-12T12:57:26.226Z,1003.78
2017-12-12T12:58:35.330Z,1003.87
2017-12-12T12:59:44.158Z,1003.92
2017-12-12T13:00:53.044Z,1003.89
2017-12-12T13:02:02.038Z,1003.89
2017-12-12T13:03:10.843Z,1003.91
2017-12-12T13:04:19.673Z,1003.94
2017-12-12T13:05:28.504Z,1003.93
2017-12-12T13:06:37.362Z,1003.99
2017-12-12T13:07:46.243Z,1004.01
2017-12-12T13:08:55.069Z,1004.08
2017-12-12T13:10:03.896Z,1003.98
2017-12-12T13:11:12.720Z,1004.01
2017-12-12T13:12:21.546Z,1004.05
2017-12-12T13:13:30.575Z,1004.11
2017-12-12T13:14:39.395Z,1004.12
2017-12-12T13:15:48.219Z,1004.15
2017-12-12T13:16:57.049Z,1004.18
2017-12-12T13:18:05.871Z,1004.25
2017-12-12T13:19:14.795Z,1004.27
2017-12-12T13:20:23.570Z,1004.28
2017-12-12T13:21:32.398Z,1004.33
2017-12-12T13:22:41.228Z,1004.36
2017-12-12T13:23:50.051Z,1004.34
2017-12-12T13:24:59.026Z,1004.38
2017-12-12T13:26:07.849Z,1004.4
2017-12-12T13:27:16.673Z,1004.41
2017-12-12T13:28:25.500Z,1004.43
2017-12-12T13:29:34.332Z,1004.46
2017-12-12T13:30:43.300Z,1004.45
2017-12-12T13:31:52.401Z,1004.4
2017-12-12T13:33:01.226Z,1004.41
2017-12-12T13:34:10.051Z,1004.44
2017-12-12T13:35:18.875Z,1004.45
2017-12-12T13:36:27.751Z,1004.49
2017-12-12T13:37:36.575Z,1004.52
2017-12-12T13:38:45.397Z,1004.56
2017-12-12T13:39:54.228Z,1004.63
2017-12-12T13:41:03.054Z,1004.67
2017-12-12T13:42:11.929Z,1004.62
2017-12-12T13:43:20.753Z,1004.7
2017-12-12T13:44:29.577Z,1004.73
2017-12-12T13:45:38.402Z,1004.69
2017-12-12T13:46:47.498Z,1004.7
2017-12-12T13:47:56.472Z,1004.66
2017-12-12T13:49:05.297Z,1004.66
2017-12-12T13:50:14.401Z,1004.62
2017-12-12T13:51:23.223Z,1004.64
2017-12-12T13:52:32.048Z,1004.77
2017-12-12T13:53:40.874Z,1004.79
2017-12-12T13:54:49.697Z,1004.81
2017-12-12T13:55:58.522Z,1004.87
2017-12-12T13:57:07.351Z,1004.96
2017-12-12T13:58:16.177Z,1004.97
2017-12-12T13:59:25.056Z,1005
2017-12-12T14:00:33.880Z,1005.05
2017-12-12T14:01:42.704Z,1005.08
2017-12-12T14:02:51.529Z,1005.11
2017-12-12T14:04:00.354Z,1005.14
2017-12-12T14:05:09.579Z,1005.16
2017-12-12T14:06:18.401Z,1005.22
2017-12-12T14:07:27.225Z,1005.32
2017-12-12T14:08:36.048Z,1005.34
2017-12-12T14:09:44.872Z,1005.3
2017-12-12T14:10:53.845Z,1005.35
2017-12-12T14:12:02.669Z,1005.34
2017-12-12T14:13:11.495Z,1005.39
2017-12-12T14:14:20.319Z,1005.5
2017-12-12T14:15:29.144Z,1005.5
2017-12-12T14:16:38.117Z,1005.58
2017-12-12T14:17:46.945Z,1005.59